Time;durP1;ratioP1;P1;durP2;ratioP2;P2;SDS_P1;SDS_P2;PMS_P1;PMS_P2;Temp;Humidity;BMP_temperature;BMP_pressure;BME280_temperature;BME280_humidity;BME280_pressure;Samples;Min_cycle;Max_cycle;Signal;HPM_P1;HPM_P2
2024/01/26 00:00:54;;;;;;;13.43;3.58;;;8.50;99.90;;;;;;5057368;28;20025;-79
2024/01/26 00:03:19;;;;;;;6.32;2.80;;;8.50;99.90;;;;;;5058427;28;20110;-79
2024/01/26 00:05:45;;;;;;;5.95;3.35;;;8.50;99.90;;;;;;5058220;28;20112;-80
2024/01/26 00:08:14;;;;;;;6.82;3.50;;;8.50;99.90;;;;;;5057636;28;20036;-79
2024/01/26 00:10:40;;;;;;;7.15;3.70;;;8.50;99.90;;;;;;5057768;28;20024;-79
2024/01/26 00:13:06;;;;;;;5.70;3.10;;;8.50;99.90;;;;;;5056459;28;20083;-79
2024/01/26 00:15:31;;;;;;;10.00;3.60;;;8.50;99.90;;;;;;5057394;28;20117;-79
2024/01/26 00:17:57;;;;;;;7.97;3.45;;;8.50;99.90;;;;;;5054293;28;20029;-79
2024/01/26 00:20:23;;;;;;;7.72;3.47;;;8.50;99.90;;;;;;5052071;28;20109;-79
2024/01/26 00:22:49;;;;;;;5.45;3.38;;;8.60;99.90;;;;;;5073301;28;20021;-79
2024/01/26 00:25:15;;;;;;;7.75;3.45;;;8.50;99.90;;;;;;5055157;28;20025;-79
2024/01/26 00:27:40;;;;;;;10.70;3.25;;;8.60;99.90;;;;;;5058366;28;20028;-79
2024/01/26 00:30:07;;;;;;;11.55;3.70;;;8.60;99.90;;;;;;5061201;28;20024;-79
2024/01/26 00:32:32;;;;;;;9.07;3.72;;;8.60;99.90;;;;;;5078188;28;20024;-80
2024/01/26 00:34:58;;;;;;;7.80;4.43;;;8.50;99.90;;;;;;5058862;28;20119;-80
2024/01/26 00:37:24;;;;;;;8.10;3.80;;;8.50;99.90;;;;;;5062025;28;20369;-79
2024/01/26 00:39:50;;;;;;;6.82;3.30;;;8.50;99.90;;;;;;5061986;28;20035;-80
2024/01/26 00:42:15;;;;;;;7.20;3.60;;;8.60;99.90;;;;;;5059141;28;20043;-80
2024/01/26 00:44:41;;;;;;;11.73;3.47;;;8.60;99.90;;;;;;5060553;28;20076;-79
2024/01/26 00:47:08;;;;;;;8.98;3.97;;;8.60;99.90;;;;;;5061890;28;20481;-80
2024/01/26 00:49:33;;;;;;;15.45;4.10;;;8.60;99.90;;;;;;5060058;28;20020;-79
2024/01/26 00:51:59;;;;;;;7.55;3.58;;;8.60;99.90;;;;;;5060042;28;20427;-80
2024/01/26 00:54:25;;;;;;;10.63;3.33;;;8.60;99.90;;;;;;5058533;28;20029;-79
2024/01/26 00:56:51;;;;;;;9.68;3.90;;;8.60;99.90;;;;;;5063328;28;20044;-79
2024/01/26 00:59:16;;;;;;;10.20;3.88;;;8.60;99.90;;;;;;5061820;28;20058;-80
2024/01/26 01:01:42;;;;;;;6.10;3.13;;;8.60;99.90;;;;;;5059950;28;20036;-79
2024/01/26 01:04:08;;;;;;;7.90;3.83;;;8.70;99.90;;;;;;5058858;28;20028;-79
2024/01/26 01:06:34;;;;;;;13.23;3.85;;;8.60;99.90;;;;;;5058380;28;20028;-80
2024/01/26 01:08:59;;;;;;;7.72;3.67;;;8.60;99.90;;;;;;5058260;28;20291;-82
2024/01/26 01:11:25;;;;;;;6.53;3.72;;;8.60;99.90;;;;;;5059332;28;20040;-80
2024/01/26 01:13:51;;;;;;;6.72;3.03;;;8.70;99.90;;;;;;5058720;28;20480;-80
2024/01/26 01:16:18;;;;;;;6.20;3.30;;;8.70;99.90;;;;;;5056561;28;20504;-80
2024/01/26 01:18:44;;;;;;;6.07;2.95;;;8.70;99.90;;;;;;5061354;28;20039;-81
2024/01/26 01:21:09;;;;;;;6.30;3.30;;;8.70;99.90;;;;;;5080279;28;20028;-79
2024/01/26 01:23:36;;;;;;;7.57;3.78;;;8.70;99.90;;;;;;5090715;28;20640;-79
2024/01/26 01:26:01;;;;;;;5.18;3.17;;;8.70;99.90;;;;;;5065443;28;20484;-79
2024/01/26 01:28:28;;;;;;;7.05;3.40;;;8.70;99.90;;;;;;5058319;28;20059;-80
2024/01/26 01:30:54;;;;;;;9.13;3.70;;;8.70;99.90;;;;;;5060799;28;20029;-79
2024/01/26 01:33:20;;;;;;;6.28;3.72;;;8.70;99.90;;;;;;5069033;28;20197;-80
2024/01/26 01:35:45;;;;;;;9.38;3.92;;;8.70;99.90;;;;;;5056732;28;20413;-79
2024/01/26 01:38:11;;;;;;;6.88;2.92;;;8.70;99.90;;;;;;5053414;28;20492;-79
2024/01/26 01:40:37;;;;;;;9.98;4.50;;;8.70;99.90;;;;;;5060227;28;20115;-79
2024/01/26 01:43:03;;;;;;;10.02;3.80;;;8.70;99.90;;;;;;5058473;28;20481;-79
2024/01/26 01:45:29;;;;;;;8.65;3.15;;;8.70;99.90;;;;;;5060177;28;20031;-80
2024/01/26 01:47:54;;;;;;;7.38;3.75;;;8.70;99.90;;;;;;5084145;28;20036;-79
2024/01/26 01:50:20;;;;;;;12.48;3.55;;;8.70;99.90;;;;;;5088867;28;20052;-79
2024/01/26 01:52:48;;;;;;;5.97;3.33;;;8.70;99.90;;;;;;5061875;28;20029;-80
2024/01/26 01:55:15;;;;;;;10.45;4.07;;;8.70;99.90;;;;;;5068903;28;20112;-80
2024/01/26 01:57:42;;;;;;;7.90;4.35;;;8.70;99.90;;;;;;5056407;28;20143;-79
2024/01/26 02:00:15;;;;;;;7.55;3.47;;;8.70;99.90;;;;;;5050553;28;20035;-79
2024/01/26 02:02:46;;;;;;;6.93;3.53;;;8.70;99.90;;;;;;5058190;28;20063;-79
2024/01/26 02:05:13;;;;;;;8.38;3.90;;;8.70;99.90;;;;;;5058163;28;20041;-79
2024/01/26 02:07:39;;;;;;;8.80;3.60;;;8.70;99.90;;;;;;5057460;28;20021;-79
2024/01/26 02:10:07;;;;;;;5.47;3.85;;;8.70;99.90;;;;;;5059388;28;20032;-80
2024/01/26 02:12:33;;;;;;;7.72;3.95;;;8.80;99.90;;;;;;5056264;28;20021;-79
2024/01/26 02:14:59;;;;;;;9.13;3.95;;;8.80;99.90;;;;;;5060379;28;20392;-80
2024/01/26 02:17:32;;;;;;;11.20;3.88;;;8.80;99.90;;;;;;5060057;28;20025;-79
2024/01/26 02:19:58;;;;;;;7.13;4.13;;;8.80;99.90;;;;;;5057694;28;20404;-80
2024/01/26 02:22:24;;;;;;;7.78;3.78;;;8.80;99.90;;;;;;5060848;28;20266;-80
2024/01/26 02:24:50;;;;;;;6.30;3.97;;;8.80;99.90;;;;;;5076623;28;20029;-79
2024/01/26 02:27:15;;;;;;;8.85;4.32;;;8.80;99.90;;;;;;5057505;28;20558;-79
2024/01/26 02:29:41;;;;;;;6.75;3.70;;;8.80;99.90;;;;;;5075387;28;20123;-79
2024/01/26 02:32:09;;;;;;;8.52;4.00;;;8.80;99.90;;;;;;5056303;28;20394;-80
2024/01/26 02:34:34;;;;;;;9.43;4.38;;;8.80;99.90;;;;;;5082271;28;20028;-80
2024/01/26 02:37:00;;;;;;;6.88;3.80;;;8.80;99.90;;;;;;5075859;28;20396;-80
2024/01/26 02:39:28;;;;;;;7.50;3.92;;;8.80;99.90;;;;;;5055311;28;20063;-80
2024/01/26 02:41:57;;;;;;;6.38;3.22;;;8.80;99.90;;;;;;5060664;28;20052;-79
2024/01/26 02:44:23;;;;;;;7.85;4.15;;;8.80;99.90;;;;;;5064225;28;20024;-79
2024/01/26 02:46:48;;;;;;;8.60;3.38;;;8.80;99.90;;;;;;5072987;28;20103;-79
2024/01/26 02:49:15;;;;;;;6.65;3.83;;;8.80;99.90;;;;;;5057220;28;20534;-80
2024/01/26 02:51:41;;;;;;;8.55;3.90;;;8.80;99.90;;;;;;5072802;28;20024;-80
2024/01/26 02:54:06;;;;;;;8.18;3.92;;;8.80;99.90;;;;;;5058244;28;20408;-80
2024/01/26 02:56:32;;;;;;;5.85;3.75;;;8.80;99.90;;;;;;5055461;28;20053;-80
2024/01/26 02:58:58;;;;;;;6.85;3.72;;;8.80;99.90;;;;;;5067365;28;20477;-79
2024/01/26 03:01:23;;;;;;;7.32;3.63;;;8.80;99.90;;;;;;5047531;28;20122;-80
2024/01/26 03:03:49;;;;;;;6.65;3.75;;;8.80;99.90;;;;;;5061036;28;20043;-79
2024/01/26 03:06:15;;;;;;;7.80;3.72;;;8.80;99.90;;;;;;5056002;28;20021;-79
2024/01/26 03:08:41;;;;;;;7.28;4.10;;;8.80;99.90;;;;;;5050165;28;20060;-80
2024/01/26 03:11:07;;;;;;;9.70;3.70;;;8.80;99.90;;;;;;5077083;28;20078;-79
2024/01/26 03:13:33;;;;;;;7.45;3.55;;;8.80;99.90;;;;;;5049154;28;20048;-80
2024/01/26 03:15:58;;;;;;;7.70;3.63;;;8.80;99.90;;;;;;5062196;28;20590;-80
2024/01/26 03:18:24;;;;;;;6.40;3.65;;;8.80;99.90;;;;;;5056327;28;20110;-80
2024/01/26 03:20:50;;;;;;;6.53;3.80;;;8.80;99.90;;;;;;5053650;28;20096;-79
2024/01/26 03:23:15;;;;;;;9.15;3.45;;;8.80;99.90;;;;;;5058261;28;20070;-79
2024/01/26 03:25:41;;;;;;;6.35;3.53;;;8.80;99.90;;;;;;5072802;22;20597;-47
2024/01/26 03:28:07;;;;;;;7.07;3.50;;;8.80;99.90;;;;;;5041059;28;20025;-51
2024/01/26 03:30:34;;;;;;;5.35;3.28;;;8.80;99.90;;;;;;5040639;28;20475;-51
2024/01/26 03:33:00;;;;;;;6.97;3.70;;;8.80;99.90;;;;;;5028621;28;20631;-51
2024/01/26 03:35:26;;;;;;;5.88;3.30;;;8.80;99.90;;;;;;5029609;28;20044;-52
2024/01/26 03:37:52;;;;;;;6.05;3.20;;;8.80;99.90;;;;;;5025321;28;20112;-50
2024/01/26 03:40:17;;;;;;;7.45;3.95;;;8.80;99.90;;;;;;5027260;28;20097;-48
2024/01/26 03:42:44;;;;;;;9.07;3.78;;;8.80;99.90;;;;;;5026973;28;20451;-45
2024/01/26 03:45:09;;;;;;;5.75;3.33;;;8.90;99.90;;;;;;5025091;28;20042;-50
2024/01/26 03:47:35;;;;;;;8.40;3.20;;;8.90;99.90;;;;;;5029161;28;20479;-47
2024/01/26 03:50:01;;;;;;;6.00;3.25;;;8.90;99.90;;;;;;5028536;28;20032;-48
2024/01/26 03:52:26;;;;;;;5.53;2.95;;;8.90;99.90;;;;;;5024818;28;20030;-48
2024/01/26 03:54:53;;;;;;;5.57;3.13;;;8.90;99.90;;;;;;5022377;28;20109;-49
2024/01/26 03:57:18;;;;;;;5.07;2.67;;;8.90;99.90;;;;;;5018226;28;20094;-47
2024/01/26 03:59:44;;;;;;;6.78;3.00;;;8.90;99.90;;;;;;5025144;28;20025;-52
2024/01/26 04:02:10;;;;;;;5.63;3.03;;;8.90;99.90;;;;;;5030414;28;20031;-47
2024/01/26 04:04:36;;;;;;;5.43;3.28;;;8.90;99.90;;;;;;5025808;28;20438;-46
2024/01/26 04:07:02;;;;;;;6.35;2.85;;;8.90;99.90;;;;;;5003651;28;20049;-47
2024/01/26 04:09:28;;;;;;;5.63;2.65;;;8.90;99.90;;;;;;5026106;28;20112;-47
2024/01/26 04:11:53;;;;;;;6.65;3.00;;;8.90;99.90;;;;;;5023288;28;20053;-49
2024/01/26 04:14:19;;;;;;;4.25;2.78;;;8.90;99.90;;;;;;5026198;28;20511;-47
2024/01/26 04:16:45;;;;;;;6.35;3.15;;;8.90;99.90;;;;;;5023611;28;20033;-48
2024/01/26 04:19:10;;;;;;;8.57;3.42;;;8.90;99.90;;;;;;5019592;28;20026;-48
2024/01/26 04:21:36;;;;;;;7.20;3.08;;;8.90;99.90;;;;;;5026767;28;20087;-48
2024/01/26 04:24:01;;;;;;;5.80;3.05;;;8.90;99.90;;;;;;5028779;28;20041;-48
2024/01/26 04:26:27;;;;;;;7.32;3.08;;;8.90;99.90;;;;;;5026038;28;20438;-48
2024/01/26 04:28:53;;;;;;;5.53;3.55;;;8.90;99.90;;;;;;5029320;28;20026;-46
2024/01/26 04:31:22;;;;;;;9.40;3.20;;;8.90;99.90;;;;;;5022058;28;20391;-47
2024/01/26 04:33:48;;;;;;;5.53;3.10;;;8.90;99.90;;;;;;5020286;28;20048;-46
2024/01/26 04:36:13;;;;;;;6.63;3.22;;;8.90;99.90;;;;;;5027142;28;20041;-49
2024/01/26 04:38:39;;;;;;;5.68;3.30;;;8.90;99.90;;;;;;5024059;28;20025;-48
2024/01/26 04:41:05;;;;;;;10.55;3.88;;;8.80;99.90;;;;;;5025064;28;20022;-48
2024/01/26 04:43:30;;;;;;;6.68;3.17;;;8.80;99.90;;;;;;5030004;28;20092;-48
2024/01/26 04:45:56;;;;;;;6.72;3.53;;;8.80;99.90;;;;;;5030167;28;20040;-48
2024/01/26 04:48:22;;;;;;;5.28;3.53;;;8.80;99.90;;;;;;5029943;28;20021;-49
2024/01/26 04:50:47;;;;;;;5.13;3.20;;;8.80;99.90;;;;;;5030475;28;20659;-47
2024/01/26 04:53:13;;;;;;;5.50;3.38;;;8.80;99.90;;;;;;5030370;28;20116;-50
2024/01/26 04:55:39;;;;;;;5.38;2.58;;;8.90;99.90;;;;;;5026240;28;20033;-49
2024/01/26 04:58:04;;;;;;;5.82;3.13;;;8.80;99.90;;;;;;5021282;28;20124;-47
2024/01/26 05:00:30;;;;;;;6.13;3.70;;;8.90;99.90;;;;;;5020654;28;20777;-47
2024/01/26 05:02:56;;;;;;;5.70;3.10;;;8.90;99.90;;;;;;5030261;28;20029;-49
2024/01/26 05:05:21;;;;;;;7.43;3.33;;;8.80;99.90;;;;;;5023797;28;20120;-48
2024/01/26 05:07:47;;;;;;;5.00;3.20;;;8.80;99.90;;;;;;5027365;28;20038;-48
2024/01/26 05:10:13;;;;;;;9.25;3.60;;;8.80;99.90;;;;;;5023303;28;20038;-49
2024/01/26 05:12:38;;;;;;;5.05;3.25;;;8.80;99.90;;;;;;5024899;28;20369;-49
2024/01/26 05:15:09;;;;;;;7.07;4.25;;;8.80;99.90;;;;;;5027680;28;20049;-48
2024/01/26 05:17:34;;;;;;;9.65;3.00;;;8.80;99.90;;;;;;5028711;28;20029;-51
2024/01/26 05:20:00;;;;;;;6.97;3.03;;;8.80;99.90;;;;;;5033339;28;20080;-48
2024/01/26 05:22:25;;;;;;;4.90;2.63;;;8.80;99.90;;;;;;5023699;28;20033;-47
2024/01/26 05:24:51;;;;;;;6.90;3.45;;;8.80;99.90;;;;;;5030412;28;20395;-46
2024/01/26 05:27:16;;;;;;;7.78;3.20;;;8.80;99.90;;;;;;5030344;28;20025;-48
2024/01/26 05:29:42;;;;;;;5.32;2.60;;;8.80;99.90;;;;;;5033186;28;20026;-49
2024/01/26 05:32:08;;;;;;;4.35;2.58;;;8.80;99.90;;;;;;5028585;28;20400;-48
2024/01/26 05:34:34;;;;;;;6.25;2.67;;;8.90;99.90;;;;;;5032421;28;20024;-50
2024/01/26 05:36:59;;;;;;;3.38;2.40;;;8.80;99.90;;;;;;5028548;28;20037;-49
2024/01/26 05:39:28;;;;;;;4.30;2.33;;;8.90;99.90;;;;;;5025416;28;20083;-48
2024/01/26 05:41:54;;;;;;;4.68;1.95;;;8.90;99.90;;;;;;5029250;28;20033;-46
2024/01/26 05:44:20;;;;;;;3.58;2.05;;;8.90;99.90;;;;;;5026610;28;20025;-48
2024/01/26 05:46:45;;;;;;;2.35;1.50;;;8.90;99.90;;;;;;5029765;28;20414;-51
2024/01/26 05:49:11;;;;;;;3.38;1.88;;;9.00;99.90;;;;;;5033294;28;20175;-47
2024/01/26 05:51:37;;;;;;;1.90;1.40;;;9.00;99.90;;;;;;5029883;28;20026;-47
2024/01/26 05:54:03;;;;;;;2.85;1.42;;;9.00;99.90;;;;;;5020265;28;20029;-47
2024/01/26 05:56:28;;;;;;;2.85;1.45;;;9.00;99.90;;;;;;5030885;28;20391;-51
2024/01/26 05:58:54;;;;;;;1.98;1.25;;;9.00;99.90;;;;;;5032044;28;20097;-48
2024/01/26 06:01:20;;;;;;;1.75;1.02;;;9.00;99.90;;;;;;5031489;28;20494;-47
2024/01/26 06:03:45;;;;;;;1.80;1.08;;;8.90;99.90;;;;;;5031507;28;20044;-48
2024/01/26 06:06:11;;;;;;;1.90;1.33;;;8.90;99.90;;;;;;5027835;28;20033;-48
2024/01/26 06:08:40;;;;;;;3.03;1.35;;;8.80;99.90;;;;;;5031947;28;20391;-47
2024/01/26 06:11:06;;;;;;;2.33;1.40;;;8.80;99.90;;;;;;5024038;28;20044;-47
2024/01/26 06:13:31;;;;;;;1.48;1.05;;;8.80;99.90;;;;;;5021510;28;20095;-48
2024/01/26 06:15:57;;;;;;;1.48;1.10;;;8.80;99.90;;;;;;5031532;28;20032;-47
2024/01/26 06:18:22;;;;;;;1.02;0.90;;;8.80;99.90;;;;;;5025312;28;20096;-48
2024/01/26 06:20:48;;;;;;;3.03;1.20;;;8.80;99.90;;;;;;5025893;28;20029;-50
2024/01/26 06:23:13;;;;;;;2.13;1.25;;;8.90;99.90;;;;;;5031006;28;20061;-48
2024/01/26 06:25:39;;;;;;;1.45;1.05;;;8.90;99.90;;;;;;5030161;28;20026;-51
2024/01/26 06:28:05;;;;;;;3.17;1.27;;;8.90;99.90;;;;;;5027974;28;20039;-49
2024/01/26 06:30:30;;;;;;;2.17;1.15;;;8.90;99.90;;;;;;5031176;28;20025;-49
2024/01/26 06:32:56;;;;;;;2.05;1.08;;;8.90;99.90;;;;;;5023846;28;20029;-48
2024/01/26 06:35:22;;;;;;;3.95;1.30;;;8.80;99.90;;;;;;5026278;28;20113;-51
2024/01/26 06:37:48;;;;;;;1.42;0.98;;;8.80;99.90;;;;;;5026383;28;20037;-47
2024/01/26 06:40:13;;;;;;;2.65;0.98;;;8.80;99.90;;;;;;5024719;28;20364;-49
2024/01/26 06:42:39;;;;;;;2.40;0.98;;;8.80;99.90;;;;;;5030062;28;20053;-46
2024/01/26 06:45:09;;;;;;;1.00;0.90;;;8.80;99.90;;;;;;5030837;28;20029;-48
2024/01/26 06:47:35;;;;;;;1.48;1.00;;;8.80;99.90;;;;;;5026305;28;20437;-48
2024/01/26 06:50:01;;;;;;;1.95;1.00;;;8.80;99.90;;;;;;5026570;28;20117;-48
2024/01/26 06:52:27;;;;;;;1.48;0.93;;;8.80;99.90;;;;;;5027899;28;20105;-51
2024/01/26 06:54:53;;;;;;;1.42;0.95;;;8.80;99.90;;;;;;5027403;28;20141;-48
2024/01/26 06:57:18;;;;;;;1.40;0.82;;;8.80;99.90;;;;;;5028919;28;20033;-49
2024/01/26 06:59:44;;;;;;;1.38;0.98;;;8.80;99.90;;;;;;5022384;28;20047;-48
2024/01/26 07:02:10;;;;;;;10.90;3.45;;;8.80;99.90;;;;;;5030134;28;20037;-48
2024/01/26 07:04:35;;;;;;;23.40;10.77;;;8.90;99.90;;;;;;5029677;28;20546;-46
2024/01/26 07:07:01;;;;;;;51.33;22.60;;;8.90;99.90;;;;;;5029601;28;20025;-48
2024/01/26 07:09:27;;;;;;;40.83;18.10;;;8.90;99.90;;;;;;5028928;28;20036;-47
2024/01/26 07:11:52;;;;;;;16.88;9.45;;;8.90;99.90;;;;;;5025741;28;20117;-48
2024/01/26 07:14:19;;;;;;;7.32;4.20;;;8.90;99.90;;;;;;5021944;28;20403;-48
2024/01/26 07:16:46;;;;;;;3.95;1.95;;;9.00;99.90;;;;;;5020695;28;20045;-48
2024/01/26 07:19:11;;;;;;;2.45;1.55;;;9.00;99.90;;;;;;5029867;28;20037;-48
2024/01/26 07:21:37;;;;;;;12.25;5.97;;;9.00;99.90;;;;;;5026523;28;20367;-46
2024/01/26 07:24:03;;;;;;;6.40;3.33;;;9.00;99.90;;;;;;5029653;28;20025;-47
2024/01/26 07:26:28;;;;;;;2.63;1.85;;;9.00;99.90;;;;;;5030427;28;20376;-49
2024/01/26 07:28:54;;;;;;;8.60;4.75;;;9.10;99.90;;;;;;5028002;28;20033;-48
2024/01/26 07:31:19;;;;;;;5.80;2.60;;;9.10;99.90;;;;;;5027912;28;20025;-49
2024/01/26 07:33:45;;;;;;;2.70;1.63;;;9.10;99.90;;;;;;5042829;22;20094;-84
2024/01/26 07:36:11;;;;;;;2.75;1.65;;;9.20;99.90;;;;;;5063240;28;20033;-84
2024/01/26 07:38:36;;;;;;;2.40;1.85;;;9.20;99.90;;;;;;5055729;28;20113;-85
2024/01/26 07:41:03;;;;;;;11.32;3.95;;;9.20;99.90;;;;;;5040423;28;20029;-83
2024/01/26 07:43:28;;;;;;;5.10;2.53;;;9.20;99.90;;;;;;5045131;28;20053;-86
2024/01/26 07:45:54;;;;;;;8.15;2.47;;;9.20;99.90;;;;;;5037867;28;20498;-85
2024/01/26 07:48:20;;;;;;;10.35;3.05;;;9.20;99.90;;;;;;5033577;28;20053;-83
2024/01/26 07:50:46;;;;;;;9.77;3.47;;;9.20;99.90;;;;;;5053571;28;20503;-84
2024/01/26 07:53:12;;;;;;;3.78;2.10;;;9.20;99.90;;;;;;5037904;28;20082;-85
2024/01/26 07:55:37;;;;;;;3.22;1.60;;;9.20;99.90;;;;;;5056402;28;20025;-85
2024/01/26 07:58:03;;;;;;;2.60;1.60;;;9.20;99.90;;;;;;5056179;28;20040;-84
2024/01/26 08:00:29;;;;;;;3.05;1.48;;;9.20;99.90;;;;;;5037840;28;20029;-84
2024/01/26 08:02:54;;;;;;;4.93;1.88;;;9.20;99.90;;;;;;5038373;28;20045;-83
2024/01/26 08:05:20;;;;;;;3.88;1.80;;;9.20;99.90;;;;;;5037877;28;20029;-82
2024/01/26 08:07:46;;;;;;;4.88;2.95;;;9.20;99.90;;;;;;5037256;28;20029;-84
2024/01/26 08:10:12;;;;;;;5.25;2.15;;;9.20;99.90;;;;;;5038338;28;20576;-84
2024/01/26 08:12:40;;;;;;;6.13;2.10;;;9.20;99.90;;;;;;5049006;28;20047;-84
2024/01/26 08:15:06;;;;;;;5.47;2.75;;;9.20;99.90;;;;;;5055656;28;20113;-84
2024/01/26 08:17:36;;;;;;;7.25;3.45;;;9.20;99.90;;;;;;5031797;28;20055;-84
2024/01/26 08:20:03;;;;;;;10.80;4.95;;;9.20;99.90;;;;;;5038435;28;20124;-85
2024/01/26 08:22:29;;;;;;;10.60;3.80;;;9.20;99.90;;;;;;5037328;28;20032;-83
2024/01/26 08:24:54;;;;;;;9.95;4.57;;;9.20;99.90;;;;;;5038141;28;20029;-84
2024/01/26 08:27:20;;;;;;;17.33;7.53;;;9.30;99.90;;;;;;5055490;28;20032;-83
2024/01/26 08:29:45;;;;;;;8.82;4.50;;;9.30;99.90;;;;;;5038421;28;20025;-83
2024/01/26 08:32:11;;;;;;;14.90;5.32;;;9.30;99.90;;;;;;5037534;28;20048;-83
2024/01/26 08:34:37;;;;;;;13.80;6.13;;;9.30;99.90;;;;;;5035469;28;20033;-84
2024/01/26 08:37:03;;;;;;;8.23;4.65;;;9.30;99.90;;;;;;5047232;28;20037;-84
2024/01/26 08:39:29;;;;;;;9.35;3.42;;;9.30;99.90;;;;;;5055795;28;20112;-84
2024/01/26 08:41:56;;;;;;;9.88;2.85;;;9.30;99.90;;;;;;5036472;28;20108;-84
2024/01/26 08:44:22;;;;;;;3.70;2.38;;;9.30;99.90;;;;;;5018896;28;20097;-84
2024/01/26 08:46:48;;;;;;;6.93;3.10;;;9.30;99.90;;;;;;5034393;28;20414;-83
2024/01/26 08:49:14;;;;;;;6.13;4.32;;;9.30;99.90;;;;;;5035816;28;20111;-83
2024/01/26 08:51:40;;;;;;;11.70;3.17;;;9.30;99.90;;;;;;5056572;28;20057;-84
2024/01/26 08:54:07;;;;;;;5.50;2.72;;;9.30;99.90;;;;;;5040993;28;20099;-84
2024/01/26 08:56:34;;;;;;;6.50;3.28;;;9.40;99.90;;;;;;5041312;28;20032;-85
2024/01/26 08:58:59;;;;;;;8.73;4.93;;;9.40;99.90;;;;;;5056021;28;20371;-84
2024/01/26 09:01:25;;;;;;;6.47;2.72;;;9.40;99.90;;;;;;5059634;28;20031;-84
2024/01/26 09:03:51;;;;;;;6.57;2.35;;;9.40;99.90;;;;;;5041118;28;20502;-84
2024/01/26 09:06:17;;;;;;;8.32;4.32;;;9.40;99.90;;;;;;5040397;28;20040;-84
2024/01/26 09:08:42;;;;;;;7.30;2.90;;;9.40;99.90;;;;;;5035708;28;20009;-84
2024/01/26 09:11:09;;;;;;;10.50;5.03;;;9.50;99.90;;;;;;5040200;28;20128;-84
2024/01/26 09:13:34;;;;;;;5.78;3.60;;;9.50;99.90;;;;;;5040230;28;20025;-84
2024/01/26 09:16:00;;;;;;;14.02;4.85;;;9.50;99.90;;;;;;5042517;28;20040;-84
2024/01/26 09:18:26;;;;;;;12.68;5.45;;;9.50;99.90;;;;;;5054871;28;20036;-84
2024/01/26 09:20:51;;;;;;;9.35;4.05;;;9.60;99.90;;;;;;5040904;28;20063;-83
2024/01/26 09:23:18;;;;;;;7.57;2.60;;;9.60;99.90;;;;;;5054907;28;20029;-84
2024/01/26 09:25:45;;;;;;;5.75;3.00;;;9.60;99.90;;;;;;5039502;28;20029;-84
2024/01/26 09:28:11;;;;;;;4.05;2.38;;;9.70;99.90;;;;;;5057087;28;20083;-84
2024/01/26 09:30:37;;;;;;;3.47;2.40;;;9.70;99.90;;;;;;5039773;28;20509;-83
2024/01/26 09:33:03;;;;;;;3.25;1.95;;;9.70;99.90;;;;;;5039902;28;20030;-85
2024/01/26 09:35:28;;;;;;;5.10;3.42;;;9.80;99.90;;;;;;5040391;28;20083;-84
2024/01/26 09:37:54;;;;;;;4.60;2.30;;;9.80;99.90;;;;;;5056227;22;20048;-50
2024/01/26 09:40:22;;;;;;;5.05;2.72;;;9.80;99.90;;;;;;5090640;28;20115;-48
2024/01/26 09:42:48;;;;;;;3.90;2.10;;;9.80;99.90;;;;;;5092196;28;20154;-49
2024/01/26 09:45:14;;;;;;;3.50;2.10;;;9.90;99.90;;;;;;5052284;28;20140;-48
2024/01/26 09:47:41;;;;;;;10.13;3.55;;;9.90;99.90;;;;;;5063359;28;20056;-48
2024/01/26 09:50:10;;;;;;;4.15;2.10;;;9.90;99.90;;;;;;5071317;28;20498;-49
2024/01/26 09:52:37;;;;;;;3.30;1.73;;;10.00;99.90;;;;;;5069443;28;20025;-47
2024/01/26 09:55:05;;;;;;;2.92;2.05;;;10.00;99.90;;;;;;5071604;28;20052;-49
2024/01/26 09:57:30;;;;;;;3.67;1.75;;;10.00;99.90;;;;;;5071231;28;20402;-48
2024/01/26 09:59:56;;;;;;;3.05;1.63;;;10.10;99.90;;;;;;5060281;28;20040;-49
2024/01/26 10:02:22;;;;;;;2.58;1.40;;;10.10;99.90;;;;;;5066545;28;20028;-47
2024/01/26 10:04:48;;;;;;;8.07;3.63;;;10.20;99.90;;;;;;5062672;28;20043;-48
2024/01/26 10:07:17;;;;;;;7.78;3.15;;;10.20;99.90;;;;;;5071618;28;20036;-50
2024/01/26 10:09:43;;;;;;;6.93;2.13;;;10.20;99.90;;;;;;5053638;28;20028;-48
2024/01/26 10:12:12;;;;;;;4.60;2.17;;;10.20;99.90;;;;;;5068469;28;20031;-48
2024/01/26 10:14:38;;;;;;;3.97;2.10;;;10.20;99.90;;;;;;5066704;28;20036;-48
2024/01/26 10:17:03;;;;;;;4.80;1.83;;;10.20;99.90;;;;;;5074603;28;20028;-48
2024/01/26 10:19:30;;;;;;;5.13;2.30;;;10.20;99.90;;;;;;5075026;28;20044;-48
2024/01/26 10:21:56;;;;;;;11.35;3.65;;;10.20;99.90;;;;;;5066004;28;20316;-50
2024/01/26 10:24:26;;;;;;;6.60;2.78;;;10.30;99.90;;;;;;5071750;28;20032;-47
2024/01/26 10:26:55;;;;;;;6.40;2.10;;;10.30;99.90;;;;;;5049509;28;20025;-48
2024/01/26 10:29:22;;;;;;;9.25;2.70;;;10.30;99.90;;;;;;5067634;28;20024;-50
2024/01/26 10:31:50;;;;;;;3.65;1.58;;;10.30;99.90;;;;;;5068342;28;20032;-48
2024/01/26 10:34:16;;;;;;;2.63;1.20;;;10.30;99.90;;;;;;5069986;28;20112;-48
2024/01/26 10:36:44;;;;;;;1.65;0.90;;;10.30;99.90;;;;;;5067496;28;20031;-48
2024/01/26 10:39:28;;;;;;;2.42;1.10;;;10.30;99.90;;;;;;5071475;28;20032;-50
2024/01/26 10:42:00;;;;;;;7.65;2.53;;;10.30;99.90;;;;;;5060241;28;20104;-48
2024/01/26 10:44:26;;;;;;;4.55;1.35;;;10.40;99.90;;;;;;5043855;27;20159;-51
2024/01/26 10:46:53;;;;;;;5.55;2.25;;;10.40;99.90;;;;;;5065794;28;20023;-48
2024/01/26 10:49:22;;;;;;;2.28;1.13;;;10.40;99.90;;;;;;5068673;28;20031;-49
2024/01/26 10:51:49;;;;;;;2.55;1.50;;;10.50;99.90;;;;;;5065072;28;20033;-49
2024/01/26 10:54:15;;;;;;;3.72;1.50;;;10.50;99.90;;;;;;5066226;28;20479;-48
2024/01/26 10:56:40;;;;;;;6.97;3.53;;;10.60;99.90;;;;;;5065168;28;20030;-48
2024/01/26 10:59:10;;;;;;;5.25;1.40;;;10.60;99.90;;;;;;5071793;28;20032;-48
2024/01/26 11:01:39;;;;;;;6.82;1.83;;;10.70;99.90;;;;;;5069532;28;20016;-48
2024/01/26 11:04:08;;;;;;;2.88;0.90;;;10.70;99.90;;;;;;5070990;28;20390;-49
2024/01/26 11:06:34;;;;;;;1.35;1.00;;;10.70;99.90;;;;;;5071218;28;20138;-50
2024/01/26 11:09:05;;;;;;;1.77;1.35;;;10.80;99.90;;;;;;5068661;28;20068;-48
2024/01/26 11:11:40;;;;;;;5.47;2.40;;;10.80;99.90;;;;;;5070868;28;20070;-47
2024/01/26 11:14:06;;;;;;;3.65;1.27;;;10.80;99.90;;;;;;5049154;28;20048;-48
2024/01/26 11:16:40;;;;;;;5.65;0.93;;;10.90;99.90;;;;;;5070257;28;20051;-49
2024/01/26 11:19:06;;;;;;;1.83;1.20;;;10.90;99.90;;;;;;5067227;28;20364;-48
2024/01/26 11:21:39;;;;;;;1.88;1.13;;;10.90;99.90;;;;;;5070742;28;20146;-48
2024/01/26 11:24:14;;;;;;;2.42;1.00;;;11.00;99.90;;;;;;5065848;28;20052;-49
2024/01/26 11:26:41;;;;;;;3.05;1.00;;;10.90;99.90;;;;;;5070984;28;20020;-49
2024/01/26 11:29:14;;;;;;;1.90;1.45;;;11.00;99.90;;;;;;5066933;28;20024;-47
2024/01/26 11:31:42;;;;;;;2.28;1.08;;;11.00;99.90;;;;;;5070026;28;20073;-49
2024/01/26 11:34:38;;;;;;;2.00;1.15;;;11.00;99.90;;;;;;5068726;28;20085;-48
2024/01/26 11:37:14;;;;;;;4.38;1.05;;;10.90;99.90;;;;;;5049823;28;20304;-48
2024/01/26 11:39:40;;;;;;;3.22;1.15;;;10.90;99.90;;;;;;5072808;28;20042;-48
2024/01/26 11:42:10;;;;;;;1.67;0.70;;;10.60;99.90;;;;;;5065228;28;20086;-49
2024/01/26 11:44:40;;;;;;;6.65;0.93;;;10.40;99.90;;;;;;5040140;28;20848;-48
2024/01/26 11:47:10;;;;;;;1.20;0.68;;;10.20;99.90;;;;;;5065528;28;20032;-48
2024/01/26 11:49:39;;;;;;;5.90;1.00;;;10.00;99.90;;;;;;5063629;28;20025;-47
2024/01/26 11:52:05;;;;;;;3.33;0.80;;;9.90;99.90;;;;;;5064266;28;20029;-48
2024/01/26 11:54:32;;;;;;;7.57;0.65;;;9.80;99.90;;;;;;5065692;28;20066;-48
2024/01/26 11:56:59;;;;;;;5.88;0.90;;;9.70;99.90;;;;;;5070197;28;20113;-48
2024/01/26 11:59:27;;;;;;;3.55;0.70;;;9.70;99.90;;;;;;5065602;28;20051;-48
2024/01/26 12:01:54;;;;;;;5.00;0.75;;;9.70;99.90;;;;;;5070081;28;20033;-48
2024/01/26 12:04:20;;;;;;;2.78;0.90;;;9.70;99.90;;;;;;5063804;28;20051;-48
2024/01/26 12:06:45;;;;;;;6.65;1.15;;;9.70;99.90;;;;;;5067917;28;20024;-48
2024/01/26 12:09:11;;;;;;;4.63;0.88;;;9.70;99.90;;;;;;5068129;28;20020;-50
2024/01/26 12:11:37;;;;;;;7.32;1.52;;;9.90;99.90;;;;;;5070027;28;20054;-48
2024/01/26 12:14:03;;;;;;;6.72;1.70;;;9.90;99.90;;;;;;5070050;28;20481;-48
2024/01/26 12:16:32;;;;;;;4.82;0.80;;;10.00;99.90;;;;;;5069051;28;20036;-49
2024/01/26 12:18:59;;;;;;;3.45;0.60;;;10.00;99.90;;;;;;5064550;28;20028;-48
2024/01/26 12:21:27;;;;;;;1.95;0.75;;;10.10;99.90;;;;;;5064067;28;20436;-48
2024/01/26 12:23:52;;;;;;;6.32;0.85;;;9.90;99.90;;;;;;5063892;28;20028;-48
2024/01/26 12:26:18;;;;;;;7.25;1.10;;;9.90;99.90;;;;;;5072535;28;20504;-48
2024/01/26 12:28:45;;;;;;;6.90;1.30;;;9.70;99.90;;;;;;5073937;28;20028;-48
2024/01/26 12:31:10;;;;;;;6.35;1.77;;;9.70;99.90;;;;;;5070585;28;20103;-48
2024/01/26 12:33:37;;;;;;;7.60;1.52;;;9.70;99.90;;;;;;5074169;28;20124;-49
2024/01/26 12:36:08;;;;;;;1.48;0.75;;;9.70;99.90;;;;;;5068684;28;20556;-48
2024/01/26 12:38:33;;;;;;;7.28;1.38;;;9.70;99.90;;;;;;5071512;28;20446;-47
2024/01/26 12:40:59;;;;;;;4.20;1.20;;;9.60;99.90;;;;;;5068786;28;20055;-49
2024/01/26 12:43:25;;;;;;;9.98;1.17;;;9.50;99.90;;;;;;5041838;28;20025;-47
2024/01/26 12:45:51;;;;;;;4.78;1.55;;;9.40;99.90;;;;;;5072949;28;20082;-50
2024/01/26 12:48:16;;;;;;;3.47;1.10;;;9.30;99.90;;;;;;5070731;28;20066;-49
2024/01/26 12:50:42;;;;;;;10.18;1.48;;;9.30;99.90;;;;;;5074804;28;20025;-49